Terminal Aerodrome Forecast
Issued by NWS Cleveland, OH

Home | Current Version | Previous Version | Graphics & Text | Print | Product List | Glossary On
Versions: 1 2 3 4 5 6 7 8 9 10 11 12 13 14 15 16 17 18
416
FTUS41 KCLE 212335
TAFMFD
TAF
KMFD 212335Z 2200/2224 31010KT P6SM BKN120
     FM220300 34013KT P6SM BKN250
     FM220600 36013KT P6SM BKN035
     FM221500 01013KT P6SM SCT035
     FM222200 02007KT P6SM SKC=

USA.gov is the U.S. government's official web portal to all federal, state and local government web resources and services.